Crea sito

Report METAR

 

KSJC - San Jose, California, USA
Distance from station: NE 14km
Dati ricevuti: 06/03/2021 02:53
Molto nuvoloso
Molto nuvoloso
 Vento da SSO
Vento: SSO 20 km/h, Raffica: 28 km/h
Temperatura: 17°C
P.to Rugiada: 6°C
Umidità: 49%
Barometro: 1015.9 hPa
Nuvole: Molto nuvoloso
Visibility: 16 km
Cloud details: Few Clouds 792 m
Parz. nuvoloso 3353 m
Molto nuvoloso 5486 m
2021/03/06 01:53 KSJC 060153Z 21011G15KT 10SM FEW026 SCT110 BKN180 17/06 A3000 RMK AO2 SLP158 T01670056
KNUQ - Moffett Nas/Mtn, California, USA
Distance from station: N 14km
Dati ricevuti: 06/03/2021 03:35
Sereno
Sereno
 Vento da SSO
Vento: SSO 19 km/h, Raffica: 30 km/h
Temperatura: 15°C
P.to Rugiada: 7°C
Umidità: 59%
Barometro: 1015.9 hPa
Nuvole: Sereno
Visibility: 16 km
2021/03/06 02:35 KNUQ 060235Z AUTO 21010G16KT 10SM CLR 15/07 A3000 RMK AO2
 
KPAO - Palo Alto, California, USA
Distance from station: NNO 23km
Dati ricevuti: 06/03/2021 02:47
Parz. nuvoloso
Parz. nuvoloso
 Vento da OSO
Vento: OSO 20 km/h
Temperatura: 15°C
P.to Rugiada: 8°C
Umidità: 63%
Barometro: 1015.9 hPa
Nuvole: Parz. nuvoloso
Visibility: 16 km
Cloud details: Few Clouds 762 m
Parz. nuvoloso 5486 m
2021/03/06 01:47 KPAO 060147Z 24011KT 10SM FEW025 SCT180 15/08 A3000
KRHV - San Jose/Reid, California, USA
Distance from station: ENE 19km
Dati ricevuti: 06/03/2021 03:36
Few Clouds
Few Clouds
 Vento da SSO
Vento: SSO 26 km/h, Raffica: 39 km/h
Temperatura: 15°C
P.to Rugiada: 7°C
Umidità: 59%
Barometro: 1016.3 hPa
Nuvole: Few Clouds
Visibility: 16 km
Cloud details: Few Clouds 914 m
2021/03/06 02:36 KRHV 060236Z 20014G21KT 10SM FEW030 15/07 A3001
 
KOAK - Oakland, California, USA
Distance from station: NNO 50km
Dati ricevuti: 06/03/2021 02:53
Molto nuvoloso
Molto nuvoloso
 Vento da OSO
Vento: OSO 19 km/h
Temperatura: 16°C
P.to Rugiada: 10°C
Umidità: 68%
Barometro: 1016.3 hPa
Nuvole: Molto nuvoloso
Visibility: 16 km
Cloud details: Few Clouds 610 m
Molto nuvoloso 6096 m
2021/03/06 01:53 KOAK 060153Z 25010KT 10SM FEW020 BKN200 16/10 A3001 RMK AO2 SLP163 T01610100
KSQL - San Carlos Airpo, California, USA
Distance from station: NO 34km
Dati ricevuti: 06/03/2021 03:47
Molto nuvoloso
Molto nuvoloso
 Vento da SSE
Vento: SSE 11 km/h
Temperatura: 14°C
P.to Rugiada: 9°C
Umidità: 72%
Barometro: 1016.3 hPa
Nuvole: Molto nuvoloso
Visibility: 16 km
Cloud details: Molto nuvoloso 914 m
2021/03/06 02:47 KSQL 060247Z 16006KT 10SM BKN030 14/09 A3001
 
KSFO - San Francisco, California, USA
Distance from station: NO 49km
Dati ricevuti: 06/03/2021 02:56
Molto nuvoloso
Molto nuvoloso
 Vento da SSO
Vento: SSO 35 km/h
Temperatura: 16°C
P.to Rugiada: 9°C
Umidità: 63%
Barometro: 1015.9 hPa
Nuvole: Molto nuvoloso
Visibility: 16 km
Cloud details: Parz. nuvoloso 488 m
Parz. nuvoloso 4572 m
Molto nuvoloso 6096 m
2021/03/06 01:56 KSFO 060156Z 20019KT 10SM SCT016 SCT150 BKN200 16/09 A3000 RMK AO2 SLP158 T01560094
KE16 - San Martin, California, USA
Distance from station: ESE 43km
Dati ricevuti: 06/03/2021 03:35
Sereno
Sereno
 Vento da SO
Vento: SO 17 km/h
Temperatura: 12°C
P.to Rugiada: 8°C
Umidità: 77%
Barometro: 1017.6 hPa
Nuvole: Sereno
Visibility: 16 km
2021/03/06 02:35 KE16 060235Z AUTO 22009KT 10SM CLR 12/08 A3005 RMK AO2 PWINO PNO
 
KWVI - Watsonville, California, USA
Distance from station: SSE 44km
Dati ricevuti: 06/03/2021 03:21
Molto nuvoloso
Molto nuvoloso
 Vento da calmo
Vento: Calma
Temperatura: 12°C
P.to Rugiada: 8°C
Umidità: 77%
Barometro: 1017.6 hPa
Nuvole: Molto nuvoloso
Visibility: 16 km
Cloud details: Molto nuvoloso 549 m
2021/03/06 02:21 KWVI 060221Z AUTO 00000KT 10SM BKN018 12/08 A3005 RMK AO2 T01170078
KHAF - Half Moon Bay, California, USA
Distance from station: ONO 50km
Dati ricevuti: 06/03/2021 03:35
Mist, Parz. nuvoloso
Mist, Parz. nuvoloso
 Vento da S
Vento: S 22 km/h, Raffica: 30 km/h
Temperatura: 12°C
P.to Rugiada: 10°C
Umidità: 88%
Barometro: 1016.6 hPa
Summary: Mist
Nuvole: Parz. nuvoloso
Visibility: 6 km
Cloud details: Few Clouds 335 m
Parz. nuvoloso 823 m
2021/03/06 02:35 KHAF 060235Z AUTO 17012G16KT 4SM BR FEW011 SCT027 12/10 A3002 RMK AO2
 
KHWD - Hayward, California, USA
Distance from station: N 44km
Dati ricevuti: 06/03/2021 02:54
Sereno
Sereno
 Vento da OSO
Vento: OSO 15 km/h
Temperatura: 15°C
P.to Rugiada: 8°C
Umidità: 63%
Barometro: 1016.3 hPa
Nuvole: Sereno
Visibility: 16 km
2021/03/06 01:54 KHWD 060154Z 25008KT 10SM CLR 15/08 A3001 RMK AO2 SLP171 T01500083
KLVK - Livermore, California, USA
Distance from station: NNE 51km
Dati ricevuti: 06/03/2021 02:53
Sereno
Sereno
 Vento da O
Vento: O 20 km/h
Temperatura: 14°C
P.to Rugiada: 7°C
Umidità: 63%
Barometro: 1015.6 hPa
Nuvole: Sereno
Visibility: 16 km
2021/03/06 01:53 KLVK 060153Z 27011KT 10SM CLR 14/07 A2999 RMK AO2 SLP153 T01390072